Skip Navigation Links
NOAA logo - Click to go to the NOAA homepage
NOAA's National Weather Service
Alaska Aviation Weather Unit
  NWS logo - Click to go to the NWS homepage
Left Navbar Graphic     10 AKDT = 18 GMT

   
NOAA is celebrating 200 years of science, service, and stewardship. Visit the NOAA 200th celebration Web site to learn more.
USA.gov is the U.S. Government's official Web portal to all Federal, state and local government Web resources and services.
Facebook
NWS on Facebook

Important Change Regarding the AAWU Web Presence

 

Over the last several months, the AAWU has been working to navigate its webpages to a nationally supported server. Security, as well as other needs, have necessitated the change.  We have been given an extension for the site changeover while we diligently work at addressing feedback received. As of July 14, 2017, aawu.arh.noaa.gov will be discontinued. The new AAWU web address is weather.gov/aawu. It is now live and will run in-parallel with the old site until it is discontinued on July 14, 2017. Please continue to send any feedback or questions regarding the new webpages to nws.ar.aawu.webauthors@noaa.gov.  Thank you for your patience during this time of transition.
AAWU Home :: Display TAF Add Bookmark
TAF PAAQ 261738Z 2618/2718  VRB04KT P6SM FEW030 SCT060 BKN200
     FM270600 14005KT P6SM VCSH BKN060=

4589
FTAK31 PANC 261738
TAFANC
TAF
METAR PAAQ 261253Z AUTO 00000KT 10SM CLR 04/03 A2975 RMK AO2 SLP076
     T00390033 TSNO $=

METAR PAAQ 261353Z AUTO 36003KT 10SM CLR 02/02 A2973 RMK AO2 SLP071
     T00220022 TSNO $=

METAR PAAQ 261453Z AUTO 01003KT 10SM CLR 02/02 A2972 RMK AO2 SLP067
     T00170017 56015 TSNO $=

METAR PAAQ 261553Z 00000KT 10SM CLR 01/01 A2971 RMK AO2 SLP066
     T00110011=

METAR PAAQ 261653Z 00000KT 10SM CLR 02/02 A2970 RMK AO2 SLP062
     T00170017=

METAR PAAQ 261753Z 00000KT 10SM CLR 04/03 A2970 RMK AO2 SLP059 T00440033
     10050 20011 58008=


NOAA's National Weather Service
Alaska Aviation Weather Unit
6930 Sand Lake Road
Anchorage, AK 99502-1845
Disclaimer
Credits
Glossary
Privacy Policy
About Us
Career Opportunities
Contact AAWU Internet Services Site last modified: April, 17th 2012